^^
Historische Daten
 
Tage Summe für Juni 25, 2017 Einheit:  Metric    English   Beide
« vorheriger Tag
nächster Tag »
Tage Wochen Monate Jahre Benutzerdefiniert
  Aktuell: Max: Min: Durchschnitt:
Temperatur: 17.4 °C 18.3 °C 17.4 °C 17.8 °C
Tau Punkt: 15.1 °C 15.3 °C 14.6 °C 15 °C
Luftfeuchte: 86% 87% 79% 83%
Windgeschwindigkeit: 16.7km/h 27.8km/h 5.6km/h 16.1km/h
Wind Böen: 16.7km/h 27.8km/h - -
WindSW - - SW
Luftdruck: 1009.0 hPa 1011.4 hPa 1009.0 hPa -
Niederschlag: 0.0 mm      
Historical Graphs
 
 
Tabellendaten für Juni 25, 2017
Zeit Temperatur Tau Punkt Luftdruck Wind Windgeschwindigkeit Wind Böen Luftfeuchte Regen Rate (Stunde) Conditions
00:04 18.3 °C 14.6 °C 1011.4 hPa SW 20.4 km/h 20.4 km/h 79% 0.0 mm -RA
00:09 18.3 °C 14.8 °C 1011.4 hPa South 9.3 km/h 9.3 km/h 80% 0.0 mm -RA
00:14 18.2 °C 14.7 °C 1011.4 hPa WSW 6.4 km/h 6.4 km/h 80% 0.0 mm -RA
00:19 18.2 °C 14.7 °C 1011.4 hPa SW 7.4 km/h 7.4 km/h 80% 0.0 mm -RA
00:24 18.2 °C 14.7 °C 1011.4 hPa SW 9.3 km/h 9.3 km/h 80% 0.0 mm -RA
00:29 18.2 °C 14.7 °C 1011.4 hPa SW 14.8 km/h 14.8 km/h 80% 0.0 mm -RA
00:34 18.2 °C 14.7 °C 1011.4 hPa SW 14.8 km/h 14.8 km/h 80% 0.0 mm -RA
00:39 18.2 °C 14.7 °C 1011.4 hPa SE 11.3 km/h 11.3 km/h 80% 0.0 mm -RA
00:44 18.2 °C 14.7 °C 1011.4 hPa SW 18.5 km/h 18.5 km/h 80% 0.0 mm -RA
00:49 18.2 °C 14.7 °C 1011.4 hPa WSW 5.6 km/h 5.6 km/h 80% 0.0 mm -RA
00:54 18.2 °C 14.7 °C 1011.1 hPa SW 14.8 km/h 14.8 km/h 80% 0.0 mm -RA
01:00 18.2 °C 14.7 °C 1011.1 hPa WSW 8.0 km/h 20.9 km/h 80% 0.0 mm -RA
01:05 18.2 °C 14.7 °C 1011.1 hPa WSW 14.8 km/h 14.8 km/h 80% 0.0 mm -RA
01:10 18.1 °C 14.8 °C 1010.7 hPa WSW 18.5 km/h 18.5 km/h 81% 0.0 mm -RA
01:15 18.1 °C 14.8 °C 1011.1 hPa WSW 22.2 km/h 22.2 km/h 81% 0.0 mm -RA
01:20 18.1 °C 14.7 °C 1010.7 hPa SW 11.1 km/h 11.1 km/h 81% 0.0 mm -RA
01:25 18.1 °C 14.7 °C 1010.7 hPa South 9.3 km/h 9.3 km/h 81% 0.0 mm -RA
01:30 18.0 °C 14.7 °C 1010.7 hPa West 13.0 km/h 13.0 km/h 81% 0.0 mm -RA
01:35 18.0 °C 14.9 °C 1010.7 hPa WSW 14.5 km/h 14.5 km/h 82% 0.0 mm -RA
01:40 18.0 °C 14.9 °C 1010.7 hPa SW 14.8 km/h 14.8 km/h 82% 0.0 mm -RA
01:45 17.9 °C 14.8 °C 1010.7 hPa WSW 5.6 km/h 5.6 km/h 82% 0.0 mm -RA
01:50 17.9 °C 14.8 °C 1010.7 hPa West 13.0 km/h 13.0 km/h 82% 0.0 mm -RA
01:55 18.0 °C 14.9 °C 1010.4 hPa WSW 16.7 km/h 16.7 km/h 82% 0.0 mm -RA
02:00 18.0 °C 14.9 °C 1010.4 hPa SW 16.7 km/h 16.7 km/h 82% 0.0 mm -RA
02:05 18.0 °C 14.9 °C 1010.4 hPa SW 7.4 km/h 7.4 km/h 82% 0.0 mm -RA
02:10 18.0 °C 15.1 °C 1010.4 hPa WSW 20.4 km/h 20.4 km/h 83% 0.0 mm -RA
02:15 17.9 °C 15.0 °C 1010.4 hPa SW 18.5 km/h 18.5 km/h 83% 0.0 mm -RA
02:20 17.9 °C 15.0 °C 1010.4 hPa West 20.9 km/h 20.9 km/h 83% 0.0 mm -RA
02:25 17.9 °C 14.9 °C 1010.4 hPa WNW 18.5 km/h 18.5 km/h 83% 0.0 mm -RA
02:30 17.8 °C 15.1 °C 1010.4 hPa SW 13.0 km/h 13.0 km/h 84% 0.0 mm -RA
02:35 17.8 °C 15.1 °C 1010.4 hPa West 14.8 km/h 14.8 km/h 84% 0.0 mm -RA
02:40 17.8 °C 15.1 °C 1010.0 hPa WSW 20.4 km/h 20.4 km/h 84% 0.0 mm -RA
02:45 17.8 °C 15.1 °C 1010.0 hPa WSW 14.8 km/h 14.8 km/h 84% 0.0 mm -RA
02:50 17.8 °C 15.1 °C 1010.0 hPa WSW 20.4 km/h 20.4 km/h 84% 0.0 mm -RA
02:55 17.8 °C 15.1 °C 1010.0 hPa SW 22.2 km/h 22.2 km/h 84% 0.0 mm -RA
03:00 17.8 °C 14.9 °C 1010.0 hPa SW 24.1 km/h 24.1 km/h 83% 0.0 mm -RA
03:05 17.8 °C 14.9 °C 1010.0 hPa WSW 20.9 km/h 20.9 km/h 83% 0.0 mm -RA
03:10 17.8 °C 14.9 °C 1010.0 hPa SW 20.4 km/h 20.4 km/h 83% 0.0 mm -RA
03:15 17.8 °C 14.9 °C 1010.0 hPa WSW 20.4 km/h 20.4 km/h 83% 0.0 mm -RA
03:20 17.9 °C 14.9 °C 1010.0 hPa SW 14.8 km/h 14.8 km/h 83% 0.0 mm -RA
03:25 17.9 °C 14.9 °C 1010.0 hPa WSW 25.7 km/h 25.7 km/h 83% 0.0 mm -RA
03:26 17.9 °C 14.9 °C 1010.0 hPa SW 25.9 km/h 25.9 km/h 83% 0.0 mm -RA
03:31 17.8 °C 15.1 °C 1010.0 hPa SW 27.8 km/h 27.8 km/h 84% 0.0 mm -RA
03:36 17.7 °C 15.2 °C 1010.0 hPa WSW 22.5 km/h 22.5 km/h 85% 0.0 mm -RA
03:41 17.6 °C 15.1 °C 1009.7 hPa South 13.0 km/h 13.0 km/h 85% 0.0 mm -RA
03:46 17.6 °C 15.2 °C 1009.7 hPa SW 17.7 km/h 17.7 km/h 86% 0.0 mm -RA
03:51 17.6 °C 15.2 °C 1009.7 hPa SW 13.0 km/h 13.0 km/h 86% 0.0 mm -RA
03:56 17.5 °C 15.1 °C 1009.7 hPa SW 20.9 km/h 20.9 km/h 86% 0.0 mm -RA
04:01 17.5 °C 15.1 °C 1009.7 hPa SW 19.3 km/h 19.3 km/h 86% 0.0 mm -RA
04:06 17.5 °C 15.1 °C 1009.7 hPa SSW 9.3 km/h 9.3 km/h 86% 0.0 mm -RA
04:11 17.5 °C 15.1 °C 1009.7 hPa South 11.1 km/h 11.1 km/h 86% 0.0 mm -RA
04:16 17.5 °C 15.1 °C 1009.4 hPa SSW 22.2 km/h 22.2 km/h 86% 0.0 mm -RA
04:21 17.4 °C 15.3 °C 1009.4 hPa SW 18.5 km/h 18.5 km/h 87% 0.0 mm -RA
04:26 17.4 °C 15.2 °C 1009.4 hPa South 14.8 km/h 14.8 km/h 87% 0.0 mm -RA
04:31 17.4 °C 15.2 °C 1009.4 hPa South 18.5 km/h 18.5 km/h 87% 0.0 mm -RA
04:36 17.4 °C 15.2 °C 1009.4 hPa South 14.5 km/h 14.5 km/h 87% 0.0 mm -RA
04:41 17.4 °C 15.2 °C 1009.4 hPa SSW 14.8 km/h 14.8 km/h 87% 0.0 mm -RA
04:46 17.4 °C 15.2 °C 1009.4 hPa WSW 20.4 km/h 20.4 km/h 87% 0.0 mm -RA
04:51 17.4 °C 15.3 °C 1009.4 hPa SW 16.1 km/h 16.1 km/h 87% 0.0 mm -RA
04:56 17.4 °C 15.1 °C 1009.0 hPa SSW 16.7 km/h 16.7 km/h 86% 0.0 mm -RA
05:01 17.4 °C 15.1 °C 1009.0 hPa West 12.9 km/h 13.7 km/h 86% 0.0 mm -RA
05:06 17.4 °C 15.1 °C 1009.0 hPa SSW 14.8 km/h 14.8 km/h 86% 0.0 mm -RA
05:11 17.4 °C 15.0 °C 1009.0 hPa SSW 18.5 km/h 18.5 km/h 86% 0.0 mm -RA
05:16 17.4 °C 15.1 °C 1009.0 hPa SW 14.8 km/h 14.8 km/h 86% 0.0 mm -RA
05:21 17.4 °C 15.1 °C 1009.0 hPa WSW 16.7 km/h 16.7 km/h 86% 0.0 mm -RA
05:23 17.4 °C 15.1 °C 1009.0 hPa SW 16.7 km/h 16.7 km/h 86% 0.0 mm -RA
BSWETTER.DE
Compliments of Weather Underground - 2 mb
Besucherstatistik
Besucher gesamt: 732.813
Besucher heute: 297
Besucher gestern: 1.248
Besucher Ø : 978,52
gerade online: 23
max. online: 119
Seitenaufrufe heute: 441
Seitenaufrufe diese Seite: 1.395
Seitenaufrufe gesamt: 2.228.117
counter Statistiken